sensor_id;sensor_type;location;lat;lon;timestamp;P1;durP1;ratioP1;P2;durP2;ratioP2
65658;SDS011;60181;53.258;6.932;2022-07-06T00:03:44;8.60;;;1.90;;
65658;SDS011;60181;53.258;6.932;2022-07-06T00:08:12;7.70;;;1.60;;
65658;SDS011;60181;53.258;6.932;2022-07-06T00:12:40;7.70;;;1.60;;
65658;SDS011;60181;53.258;6.932;2022-07-06T00:17:08;7.70;;;1.60;;
65658;SDS011;60181;53.258;6.932;2022-07-06T00:21:36;5.40;;;1.40;;
65658;SDS011;60181;53.258;6.932;2022-07-06T00:26:04;5.40;;;1.40;;
65658;SDS011;60181;53.258;6.932;2022-07-06T00:30:32;6.50;;;1.50;;
65658;SDS011;60181;53.258;6.932;2022-07-06T00:34:59;6.50;;;1.50;;
65658;SDS011;60181;53.258;6.932;2022-07-06T00:39:28;7.40;;;1.60;;
65658;SDS011;60181;53.258;6.932;2022-07-06T00:43:56;7.40;;;1.60;;
65658;SDS011;60181;53.258;6.932;2022-07-06T00:48:23;10.30;;;1.50;;
65658;SDS011;60181;53.258;6.932;2022-07-06T00:52:53;10.30;;;1.50;;
65658;SDS011;60181;53.258;6.932;2022-07-06T00:57:19;10.30;;;1.50;;
65658;SDS011;60181;53.258;6.932;2022-07-06T01:01:47;5.50;;;1.50;;
65658;SDS011;60181;53.258;6.932;2022-07-06T01:06:15;5.50;;;1.50;;
65658;SDS011;60181;53.258;6.932;2022-07-06T01:10:43;8.20;;;1.50;;
65658;SDS011;60181;53.258;6.932;2022-07-06T01:15:12;8.20;;;1.50;;
65658;SDS011;60181;53.258;6.932;2022-07-06T01:19:39;8.30;;;1.40;;
65658;SDS011;60181;53.258;6.932;2022-07-06T01:24:08;8.30;;;1.40;;
65658;SDS011;60181;53.258;6.932;2022-07-06T01:28:35;4.90;;;1.40;;
65658;SDS011;60181;53.258;6.932;2022-07-06T01:33:03;4.90;;;1.40;;
65658;SDS011;60181;53.258;6.932;2022-07-06T01:37:31;4.90;;;1.40;;
65658;SDS011;60181;53.258;6.932;2022-07-06T01:41:59;5.20;;;1.30;;
65658;SDS011;60181;53.258;6.932;2022-07-06T01:46:27;5.20;;;1.30;;
65658;SDS011;60181;53.258;6.932;2022-07-06T01:50:55;4.80;;;1.30;;
65658;SDS011;60181;53.258;6.932;2022-07-06T01:55:24;4.80;;;1.30;;
65658;SDS011;60181;53.258;6.932;2022-07-06T01:59:51;5.40;;;1.30;;
65658;SDS011;60181;53.258;6.932;2022-07-06T02:04:19;5.40;;;1.30;;
65658;SDS011;60181;53.258;6.932;2022-07-06T02:08:47;6.40;;;1.40;;
65658;SDS011;60181;53.258;6.932;2022-07-06T02:13:15;6.40;;;1.40;;
65658;SDS011;60181;53.258;6.932;2022-07-06T02:17:43;6.40;;;1.40;;
65658;SDS011;60181;53.258;6.932;2022-07-06T02:22:11;4.30;;;1.30;;
65658;SDS011;60181;53.258;6.932;2022-07-06T02:26:39;4.30;;;1.30;;
65658;SDS011;60181;53.258;6.932;2022-07-06T02:31:07;7.60;;;1.50;;
65658;SDS011;60181;53.258;6.932;2022-07-06T02:35:35;7.60;;;1.50;;
65658;SDS011;60181;53.258;6.932;2022-07-06T02:40:04;8.00;;;1.60;;
65658;SDS011;60181;53.258;6.932;2022-07-06T02:44:31;8.00;;;1.60;;
65658;SDS011;60181;53.258;6.932;2022-07-06T02:48:59;6.50;;;1.30;;
65658;SDS011;60181;53.258;6.932;2022-07-06T02:53:27;6.50;;;1.30;;
65658;SDS011;60181;53.258;6.932;2022-07-06T02:57:55;6.50;;;1.30;;
65658;SDS011;60181;53.258;6.932;2022-07-06T03:02:23;8.90;;;1.50;;
65658;SDS011;60181;53.258;6.932;2022-07-06T03:06:51;8.90;;;1.50;;
65658;SDS011;60181;53.258;6.932;2022-07-06T03:11:19;8.80;;;1.40;;
65658;SDS011;60181;53.258;6.932;2022-07-06T03:15:47;8.80;;;1.40;;
65658;SDS011;60181;53.258;6.932;2022-07-06T03:20:15;4.50;;;1.30;;
65658;SDS011;60181;53.258;6.932;2022-07-06T03:24:43;4.50;;;1.30;;
65658;SDS011;60181;53.258;6.932;2022-07-06T03:29:11;6.80;;;1.40;;
65658;SDS011;60181;53.258;6.932;2022-07-06T03:33:39;6.80;;;1.40;;
65658;SDS011;60181;53.258;6.932;2022-07-06T03:38:07;5.90;;;1.40;;
65658;SDS011;60181;53.258;6.932;2022-07-06T03:42:35;5.90;;;1.40;;
65658;SDS011;60181;53.258;6.932;2022-07-06T03:47:03;5.90;;;1.40;;
65658;SDS011;60181;53.258;6.932;2022-07-06T03:51:31;8.40;;;1.20;;
65658;SDS011;60181;53.258;6.932;2022-07-06T03:55:59;8.40;;;1.20;;
65658;SDS011;60181;53.258;6.932;2022-07-06T04:00:27;9.90;;;1.30;;
65658;SDS011;60181;53.258;6.932;2022-07-06T04:04:55;9.90;;;1.30;;
65658;SDS011;60181;53.258;6.932;2022-07-06T04:09:23;9.90;;;1.30;;
65658;SDS011;60181;53.258;6.932;2022-07-06T04:13:51;9.90;;;1.30;;
65658;SDS011;60181;53.258;6.932;2022-07-06T04:18:19;9.30;;;1.50;;
65658;SDS011;60181;53.258;6.932;2022-07-06T04:22:47;9.30;;;1.50;;
65658;SDS011;60181;53.258;6.932;2022-07-06T04:27:15;9.30;;;1.50;;
65658;SDS011;60181;53.258;6.932;2022-07-06T04:31:43;7.30;;;1.20;;
65658;SDS011;60181;53.258;6.932;2022-07-06T04:36:11;7.30;;;1.20;;
65658;SDS011;60181;53.258;6.932;2022-07-06T04:40:39;8.20;;;1.20;;
65658;SDS011;60181;53.258;6.932;2022-07-06T04:45:08;8.20;;;1.20;;
65658;SDS011;60181;53.258;6.932;2022-07-06T04:49:35;5.50;;;1.20;;
65658;SDS011;60181;53.258;6.932;2022-07-06T04:54:03;5.50;;;1.20;;
65658;SDS011;60181;53.258;6.932;2022-07-06T04:58:31;5.50;;;1.20;;
65658;SDS011;60181;53.258;6.932;2022-07-06T05:02:59;5.50;;;1.20;;
65658;SDS011;60181;53.258;6.932;2022-07-06T05:07:27;5.50;;;1.20;;
65658;SDS011;60181;53.258;6.932;2022-07-06T05:11:55;5.50;;;1.20;;
65658;SDS011;60181;53.258;6.932;2022-07-06T05:16:23;5.50;;;1.20;;
65658;SDS011;60181;53.258;6.932;2022-07-06T05:20:51;5.50;;;1.20;;
65658;SDS011;60181;53.258;6.932;2022-07-06T05:25:19;5.50;;;1.20;;
65658;SDS011;60181;53.258;6.932;2022-07-06T05:29:47;6.90;;;1.20;;
65658;SDS011;60181;53.258;6.932;2022-07-06T05:34:15;6.90;;;1.20;;
65658;SDS011;60181;53.258;6.932;2022-07-06T05:38:43;4.90;;;1.10;;
65658;SDS011;60181;53.258;6.932;2022-07-06T05:43:11;4.90;;;1.10;;
65658;SDS011;60181;53.258;6.932;2022-07-06T05:47:39;4.90;;;1.10;;
65658;SDS011;60181;53.258;6.932;2022-07-06T05:52:07;5.40;;;1.10;;
65658;SDS011;60181;53.258;6.932;2022-07-06T05:56:35;5.40;;;1.10;;
65658;SDS011;60181;53.258;6.932;2022-07-06T06:01:03;6.90;;;1.30;;
65658;SDS011;60181;53.258;6.932;2022-07-06T06:05:31;6.90;;;1.30;;
65658;SDS011;60181;53.258;6.932;2022-07-06T06:09:59;29.40;;;2.20;;
65658;SDS011;60181;53.258;6.932;2022-07-06T06:14:27;29.40;;;2.20;;
65658;SDS011;60181;53.258;6.932;2022-07-06T06:18:55;20.40;;;1.80;;
65658;SDS011;60181;53.258;6.932;2022-07-06T06:23:23;20.40;;;1.80;;
65658;SDS011;60181;53.258;6.932;2022-07-06T06:27:51;20.40;;;1.80;;
65658;SDS011;60181;53.258;6.932;2022-07-06T06:32:19;11.10;;;1.70;;
65658;SDS011;60181;53.258;6.932;2022-07-06T06:36:47;11.10;;;1.70;;
65658;SDS011;60181;53.258;6.932;2022-07-06T06:41:15;11.30;;;1.60;;
65658;SDS011;60181;53.258;6.932;2022-07-06T06:45:43;11.30;;;1.60;;
65658;SDS011;60181;53.258;6.932;2022-07-06T06:50:11;10.30;;;1.30;;
65658;SDS011;60181;53.258;6.932;2022-07-06T06:54:39;10.30;;;1.30;;
65658;SDS011;60181;53.258;6.932;2022-07-06T06:59:07;8.20;;;1.30;;
65658;SDS011;60181;53.258;6.932;2022-07-06T07:03:35;8.20;;;1.30;;
65658;SDS011;60181;53.258;6.932;2022-07-06T07:08:03;6.60;;;1.60;;
65658;SDS011;60181;53.258;6.932;2022-07-06T07:12:31;6.60;;;1.60;;
65658;SDS011;60181;53.258;6.932;2022-07-06T07:16:59;6.60;;;1.60;;
65658;SDS011;60181;53.258;6.932;2022-07-06T07:21:27;6.00;;;1.30;;
65658;SDS011;60181;53.258;6.932;2022-07-06T07:25:55;6.00;;;1.30;;
65658;SDS011;60181;53.258;6.932;2022-07-06T07:30:23;6.70;;;1.40;;
65658;SDS011;60181;53.258;6.932;2022-07-06T07:34:51;6.70;;;1.40;;
65658;SDS011;60181;53.258;6.932;2022-07-06T07:39:19;4.00;;;1.20;;
65658;SDS011;60181;53.258;6.932;2022-07-06T07:43:47;4.00;;;1.20;;
65658;SDS011;60181;53.258;6.932;2022-07-06T07:48:15;4.20;;;1.50;;
65658;SDS011;60181;53.258;6.932;2022-07-06T07:52:43;4.20;;;1.50;;
65658;SDS011;60181;53.258;6.932;2022-07-06T07:57:11;4.20;;;1.50;;
65658;SDS011;60181;53.258;6.932;2022-07-06T08:01:39;5.30;;;1.70;;
65658;SDS011;60181;53.258;6.932;2022-07-06T08:06:07;5.30;;;1.70;;
65658;SDS011;60181;53.258;6.932;2022-07-06T08:10:35;6.10;;;2.10;;
65658;SDS011;60181;53.258;6.932;2022-07-06T08:15:03;6.10;;;2.10;;
65658;SDS011;60181;53.258;6.932;2022-07-06T08:19:31;4.70;;;2.00;;
65658;SDS011;60181;53.258;6.932;2022-07-06T08:23:59;4.70;;;2.00;;
65658;SDS011;60181;53.258;6.932;2022-07-06T08:28:27;4.30;;;1.90;;
65658;SDS011;60181;53.258;6.932;2022-07-06T08:32:55;4.30;;;1.90;;
65658;SDS011;60181;53.258;6.932;2022-07-06T08:37:23;4.30;;;1.90;;
65658;SDS011;60181;53.258;6.932;2022-07-06T08:41:51;4.60;;;2.10;;
65658;SDS011;60181;53.258;6.932;2022-07-06T08:46:19;4.60;;;2.10;;
65658;SDS011;60181;53.258;6.932;2022-07-06T08:50:47;6.80;;;2.30;;
65658;SDS011;60181;53.258;6.932;2022-07-06T08:55:15;6.80;;;2.30;;
65658;SDS011;60181;53.258;6.932;2022-07-06T08:59:43;4.60;;;2.10;;
65658;SDS011;60181;53.258;6.932;2022-07-06T09:04:11;4.60;;;2.10;;
65658;SDS011;60181;53.258;6.932;2022-07-06T09:08:39;5.30;;;2.30;;
65658;SDS011;60181;53.258;6.932;2022-07-06T09:13:07;5.30;;;2.30;;
65658;SDS011;60181;53.258;6.932;2022-07-06T09:17:37;5.30;;;2.30;;
65658;SDS011;60181;53.258;6.932;2022-07-06T09:22:03;3.50;;;2.10;;
65658;SDS011;60181;53.258;6.932;2022-07-06T09:26:31;3.50;;;2.10;;
65658;SDS011;60181;53.258;6.932;2022-07-06T09:30:59;6.60;;;2.30;;
65658;SDS011;60181;53.258;6.932;2022-07-06T09:35:30;6.60;;;2.30;;
65658;SDS011;60181;53.258;6.932;2022-07-06T09:39:55;4.70;;;2.30;;
65658;SDS011;60181;53.258;6.932;2022-07-06T09:48:52;3.90;;;2.10;;
65658;SDS011;60181;53.258;6.932;2022-07-06T09:53:19;3.90;;;2.10;;
65658;SDS011;60181;53.258;6.932;2022-07-06T09:57:53;3.90;;;2.10;;
65658;SDS011;60181;53.258;6.932;2022-07-06T10:02:15;4.50;;;2.30;;
65658;SDS011;60181;53.258;6.932;2022-07-06T10:06:43;4.50;;;2.30;;
65658;SDS011;60181;53.258;6.932;2022-07-06T10:11:11;4.00;;;2.40;;
65658;SDS011;60181;53.258;6.932;2022-07-06T10:15:39;4.00;;;2.40;;
65658;SDS011;60181;53.258;6.932;2022-07-06T10:20:07;4.40;;;2.00;;
65658;SDS011;60181;53.258;6.932;2022-07-06T10:24:35;4.40;;;2.00;;
65658;SDS011;60181;53.258;6.932;2022-07-06T10:29:03;5.30;;;2.20;;
65658;SDS011;60181;53.258;6.932;2022-07-06T10:33:31;5.30;;;2.20;;
65658;SDS011;60181;53.258;6.932;2022-07-06T10:38:05;3.80;;;2.00;;
65658;SDS011;60181;53.258;6.932;2022-07-06T10:46:58;3.80;;;2.00;;
65658;SDS011;60181;53.258;6.932;2022-07-06T10:51:23;4.00;;;2.00;;
65658;SDS011;60181;53.258;6.932;2022-07-06T10:55:52;4.00;;;2.00;;
65658;SDS011;60181;53.258;6.932;2022-07-06T11:00:19;4.40;;;2.10;;
65658;SDS011;60181;53.258;6.932;2022-07-06T11:04:47;4.40;;;2.10;;
65658;SDS011;60181;53.258;6.932;2022-07-06T11:09:15;4.80;;;1.90;;
65658;SDS011;60181;53.258;6.932;2022-07-06T11:13:43;4.80;;;1.90;;
65658;SDS011;60181;53.258;6.932;2022-07-06T11:18:11;3.70;;;2.00;;
65658;SDS011;60181;53.258;6.932;2022-07-06T11:22:39;3.70;;;2.00;;
65658;SDS011;60181;53.258;6.932;2022-07-06T11:27:07;3.70;;;2.00;;
65658;SDS011;60181;53.258;6.932;2022-07-06T11:31:35;5.70;;;2.10;;
65658;SDS011;60181;53.258;6.932;2022-07-06T11:36:12;5.70;;;2.10;;
65658;SDS011;60181;53.258;6.932;2022-07-06T11:40:31;4.70;;;2.20;;
65658;SDS011;60181;53.258;6.932;2022-07-06T11:44:59;4.70;;;2.20;;
65658;SDS011;60181;53.258;6.932;2022-07-06T11:49:27;4.40;;;2.00;;
65658;SDS011;60181;53.258;6.932;2022-07-06T11:53:58;4.40;;;2.00;;
65658;SDS011;60181;53.258;6.932;2022-07-06T11:58:23;5.70;;;2.00;;
65658;SDS011;60181;53.258;6.932;2022-07-06T12:03:02;5.70;;;2.00;;
65658;SDS011;60181;53.258;6.932;2022-07-06T12:07:19;5.70;;;2.00;;
65658;SDS011;60181;53.258;6.932;2022-07-06T12:11:47;5.00;;;2.00;;
65658;SDS011;60181;53.258;6.932;2022-07-06T12:16:15;5.00;;;2.00;;
65658;SDS011;60181;53.258;6.932;2022-07-06T12:20:43;3.60;;;2.00;;
65658;SDS011;60181;53.258;6.932;2022-07-06T12:25:10;3.60;;;2.00;;
65658;SDS011;60181;53.258;6.932;2022-07-06T12:29:39;4.30;;;2.00;;
65658;SDS011;60181;53.258;6.932;2022-07-06T12:34:13;4.30;;;2.00;;
65658;SDS011;60181;53.258;6.932;2022-07-06T12:38:34;6.00;;;2.20;;
65658;SDS011;60181;53.258;6.932;2022-07-06T12:43:03;6.00;;;2.20;;
65658;SDS011;60181;53.258;6.932;2022-07-06T12:47:30;6.00;;;2.20;;
65658;SDS011;60181;53.258;6.932;2022-07-06T12:52:08;3.80;;;1.90;;
65658;SDS011;60181;53.258;6.932;2022-07-06T12:56:26;3.80;;;1.90;;
65658;SDS011;60181;53.258;6.932;2022-07-06T13:00:54;5.80;;;2.10;;
65658;SDS011;60181;53.258;6.932;2022-07-06T13:05:23;5.80;;;2.10;;
65658;SDS011;60181;53.258;6.932;2022-07-06T13:09:51;5.30;;;1.90;;
65658;SDS011;60181;53.258;6.932;2022-07-06T13:14:19;5.30;;;1.90;;
65658;SDS011;60181;53.258;6.932;2022-07-06T13:18:46;3.60;;;1.90;;
65658;SDS011;60181;53.258;6.932;2022-07-06T13:23:14;3.60;;;1.90;;
65658;SDS011;60181;53.258;6.932;2022-07-06T13:27:42;3.60;;;1.90;;
65658;SDS011;60181;53.258;6.932;2022-07-06T13:32:10;5.20;;;2.00;;
65658;SDS011;60181;53.258;6.932;2022-07-06T13:36:39;5.20;;;2.00;;
65658;SDS011;60181;53.258;6.932;2022-07-06T13:41:07;25.20;;;3.80;;
65658;SDS011;60181;53.258;6.932;2022-07-06T13:45:34;25.20;;;3.80;;
65658;SDS011;60181;53.258;6.932;2022-07-06T13:50:03;15.30;;;4.60;;
65658;SDS011;60181;53.258;6.932;2022-07-06T13:54:31;15.30;;;4.60;;
65658;SDS011;60181;53.258;6.932;2022-07-06T13:58:58;10.80;;;3.40;;
65658;SDS011;60181;53.258;6.932;2022-07-06T14:03:26;10.80;;;3.40;;
65658;SDS011;60181;53.258;6.932;2022-07-06T14:07:54;10.80;;;3.40;;
65658;SDS011;60181;53.258;6.932;2022-07-06T14:12:22;7.40;;;2.80;;
65658;SDS011;60181;53.258;6.932;2022-07-06T14:16:50;7.40;;;2.80;;
65658;SDS011;60181;53.258;6.932;2022-07-06T14:21:18;7.40;;;2.50;;
65658;SDS011;60181;53.258;6.932;2022-07-06T14:25:47;7.40;;;2.50;;
65658;SDS011;60181;53.258;6.932;2022-07-06T14:30:14;8.90;;;2.60;;
65658;SDS011;60181;53.258;6.932;2022-07-06T14:34:42;8.90;;;2.60;;
65658;SDS011;60181;53.258;6.932;2022-07-06T14:39:10;7.10;;;2.70;;
65658;SDS011;60181;53.258;6.932;2022-07-06T14:43:38;7.10;;;2.70;;
65658;SDS011;60181;53.258;6.932;2022-07-06T14:48:06;6.00;;;2.50;;
65658;SDS011;60181;53.258;6.932;2022-07-06T14:52:34;6.00;;;2.50;;
65658;SDS011;60181;53.258;6.932;2022-07-06T14:57:03;6.00;;;2.50;;
65658;SDS011;60181;53.258;6.932;2022-07-06T15:01:30;6.50;;;2.50;;
65658;SDS011;60181;53.258;6.932;2022-07-06T15:05:58;6.50;;;2.50;;
65658;SDS011;60181;53.258;6.932;2022-07-06T15:10:26;6.10;;;2.60;;
65658;SDS011;60181;53.258;6.932;2022-07-06T15:14:54;6.10;;;2.60;;
65658;SDS011;60181;53.258;6.932;2022-07-06T15:19:22;6.50;;;2.70;;
65658;SDS011;60181;53.258;6.932;2022-07-06T15:23:50;6.50;;;2.70;;
65658;SDS011;60181;53.258;6.932;2022-07-06T15:28:18;6.30;;;3.00;;
65658;SDS011;60181;53.258;6.932;2022-07-06T15:32:46;6.30;;;3.00;;
65658;SDS011;60181;53.258;6.932;2022-07-06T15:37:14;6.30;;;3.00;;
65658;SDS011;60181;53.258;6.932;2022-07-06T15:41:42;5.40;;;2.80;;
65658;SDS011;60181;53.258;6.932;2022-07-06T15:46:10;5.40;;;2.80;;
65658;SDS011;60181;53.258;6.932;2022-07-06T15:50:38;6.60;;;2.70;;
65658;SDS011;60181;53.258;6.932;2022-07-06T15:55:06;6.60;;;2.70;;
65658;SDS011;60181;53.258;6.932;2022-07-06T15:59:34;6.70;;;2.90;;
65658;SDS011;60181;53.258;6.932;2022-07-06T16:04:02;6.70;;;2.90;;
65658;SDS011;60181;53.258;6.932;2022-07-06T16:08:31;6.50;;;3.10;;
65658;SDS011;60181;53.258;6.932;2022-07-06T16:12:58;6.50;;;3.10;;
65658;SDS011;60181;53.258;6.932;2022-07-06T16:17:26;6.50;;;3.10;;
65658;SDS011;60181;53.258;6.932;2022-07-06T16:21:54;7.30;;;3.10;;
65658;SDS011;60181;53.258;6.932;2022-07-06T16:26:22;7.30;;;3.10;;
65658;SDS011;60181;53.258;6.932;2022-07-06T16:30:50;5.20;;;2.80;;
65658;SDS011;60181;53.258;6.932;2022-07-06T16:35:18;5.20;;;2.80;;
65658;SDS011;60181;53.258;6.932;2022-07-06T16:39:46;5.50;;;3.10;;
65658;SDS011;60181;53.258;6.932;2022-07-06T16:44:14;5.50;;;3.10;;
65658;SDS011;60181;53.258;6.932;2022-07-06T16:48:42;6.50;;;3.10;;
65658;SDS011;60181;53.258;6.932;2022-07-06T16:53:10;6.50;;;3.10;;
65658;SDS011;60181;53.258;6.932;2022-07-06T16:57:38;6.50;;;3.10;;
65658;SDS011;60181;53.258;6.932;2022-07-06T17:02:06;4.60;;;2.90;;
65658;SDS011;60181;53.258;6.932;2022-07-06T17:06:34;4.60;;;2.90;;
65658;SDS011;60181;53.258;6.932;2022-07-06T17:11:02;5.40;;;3.00;;
65658;SDS011;60181;53.258;6.932;2022-07-06T17:15:30;5.40;;;3.00;;
65658;SDS011;60181;53.258;6.932;2022-07-06T17:19:58;4.70;;;2.90;;
65658;SDS011;60181;53.258;6.932;2022-07-06T17:24:26;4.70;;;2.90;;
65658;SDS011;60181;53.258;6.932;2022-07-06T17:28:54;4.10;;;2.70;;
65658;SDS011;60181;53.258;6.932;2022-07-06T17:33:22;4.10;;;2.70;;
65658;SDS011;60181;53.258;6.932;2022-07-06T17:37:50;4.10;;;2.70;;
65658;SDS011;60181;53.258;6.932;2022-07-06T17:42:18;5.40;;;3.20;;
65658;SDS011;60181;53.258;6.932;2022-07-06T17:46:46;5.40;;;3.20;;
65658;SDS011;60181;53.258;6.932;2022-07-06T17:51:14;5.30;;;3.20;;
65658;SDS011;60181;53.258;6.932;2022-07-06T17:55:42;5.30;;;3.20;;
65658;SDS011;60181;53.258;6.932;2022-07-06T18:00:10;6.30;;;3.40;;
65658;SDS011;60181;53.258;6.932;2022-07-06T18:04:38;6.30;;;3.40;;
65658;SDS011;60181;53.258;6.932;2022-07-06T18:09:06;6.60;;;3.50;;
65658;SDS011;60181;53.258;6.932;2022-07-06T18:13:34;6.60;;;3.50;;
65658;SDS011;60181;53.258;6.932;2022-07-06T18:18:02;5.80;;;3.30;;
65658;SDS011;60181;53.258;6.932;2022-07-06T18:22:30;5.80;;;3.30;;
65658;SDS011;60181;53.258;6.932;2022-07-06T18:26:58;5.80;;;3.30;;
65658;SDS011;60181;53.258;6.932;2022-07-06T18:31:27;5.10;;;3.40;;
65658;SDS011;60181;53.258;6.932;2022-07-06T18:35:54;5.10;;;3.40;;
65658;SDS011;60181;53.258;6.932;2022-07-06T18:40:22;6.50;;;3.80;;
65658;SDS011;60181;53.258;6.932;2022-07-06T18:44:50;6.50;;;3.80;;
65658;SDS011;60181;53.258;6.932;2022-07-06T18:49:18;6.20;;;3.70;;
65658;SDS011;60181;53.258;6.932;2022-07-06T18:53:46;6.20;;;3.70;;
65658;SDS011;60181;53.258;6.932;2022-07-06T18:58:14;6.10;;;3.70;;
65658;SDS011;60181;53.258;6.932;2022-07-06T19:02:42;6.10;;;3.70;;
65658;SDS011;60181;53.258;6.932;2022-07-06T19:07:10;6.10;;;3.70;;
65658;SDS011;60181;53.258;6.932;2022-07-06T19:11:38;6.10;;;3.60;;
65658;SDS011;60181;53.258;6.932;2022-07-06T19:16:06;6.10;;;3.60;;
65658;SDS011;60181;53.258;6.932;2022-07-06T19:20:34;6.60;;;3.80;;
65658;SDS011;60181;53.258;6.932;2022-07-06T19:25:02;6.60;;;3.80;;
65658;SDS011;60181;53.258;6.932;2022-07-06T19:29:30;6.10;;;3.90;;
65658;SDS011;60181;53.258;6.932;2022-07-06T19:33:58;6.10;;;3.90;;
65658;SDS011;60181;53.258;6.932;2022-07-06T19:38:26;6.00;;;3.90;;
65658;SDS011;60181;53.258;6.932;2022-07-06T19:42:54;6.00;;;3.90;;
65658;SDS011;60181;53.258;6.932;2022-07-06T19:47:22;6.00;;;3.90;;
65658;SDS011;60181;53.258;6.932;2022-07-06T19:51:50;6.30;;;4.00;;
65658;SDS011;60181;53.258;6.932;2022-07-06T19:56:18;6.30;;;4.00;;
65658;SDS011;60181;53.258;6.932;2022-07-06T20:00:46;7.10;;;3.90;;
65658;SDS011;60181;53.258;6.932;2022-07-06T20:05:14;7.10;;;3.90;;
65658;SDS011;60181;53.258;6.932;2022-07-06T20:09:42;7.50;;;4.30;;
65658;SDS011;60181;53.258;6.932;2022-07-06T20:14:10;7.50;;;4.30;;
65658;SDS011;60181;53.258;6.932;2022-07-06T20:18:38;7.50;;;4.20;;
65658;SDS011;60181;53.258;6.932;2022-07-06T20:23:06;7.50;;;4.20;;
65658;SDS011;60181;53.258;6.932;2022-07-06T20:27:34;7.50;;;4.20;;
65658;SDS011;60181;53.258;6.932;2022-07-06T20:32:02;6.60;;;4.00;;
65658;SDS011;60181;53.258;6.932;2022-07-06T20:36:30;6.60;;;4.00;;
65658;SDS011;60181;53.258;6.932;2022-07-06T20:40:58;6.70;;;4.00;;
65658;SDS011;60181;53.258;6.932;2022-07-06T20:45:26;6.70;;;4.00;;
65658;SDS011;60181;53.258;6.932;2022-07-06T20:49:54;7.00;;;4.30;;
65658;SDS011;60181;53.258;6.932;2022-07-06T20:54:22;7.00;;;4.30;;
65658;SDS011;60181;53.258;6.932;2022-07-06T20:58:50;6.60;;;4.10;;
65658;SDS011;60181;53.258;6.932;2022-07-06T21:03:18;6.60;;;4.10;;
65658;SDS011;60181;53.258;6.932;2022-07-06T21:07:46;6.60;;;4.10;;
65658;SDS011;60181;53.258;6.932;2022-07-06T21:12:14;6.60;;;4.40;;
65658;SDS011;60181;53.258;6.932;2022-07-06T21:16:42;6.60;;;4.40;;
65658;SDS011;60181;53.258;6.932;2022-07-06T21:21:10;6.70;;;4.30;;
65658;SDS011;60181;53.258;6.932;2022-07-06T21:25:38;6.70;;;4.30;;
65658;SDS011;60181;53.258;6.932;2022-07-06T21:30:06;6.90;;;4.30;;
65658;SDS011;60181;53.258;6.932;2022-07-06T21:34:34;6.90;;;4.30;;
65658;SDS011;60181;53.258;6.932;2022-07-06T21:39:02;12.10;;;4.40;;
65658;SDS011;60181;53.258;6.932;2022-07-06T21:43:30;12.10;;;4.40;;
65658;SDS011;60181;53.258;6.932;2022-07-06T21:47:58;9.00;;;4.40;;
65658;SDS011;60181;53.258;6.932;2022-07-06T21:52:26;9.00;;;4.40;;
65658;SDS011;60181;53.258;6.932;2022-07-06T21:56:54;9.00;;;4.40;;
65658;SDS011;60181;53.258;6.932;2022-07-06T22:01:22;8.10;;;4.30;;
65658;SDS011;60181;53.258;6.932;2022-07-06T22:05:50;8.10;;;4.30;;
65658;SDS011;60181;53.258;6.932;2022-07-06T22:10:18;8.90;;;4.10;;
65658;SDS011;60181;53.258;6.932;2022-07-06T22:14:46;8.90;;;4.10;;
65658;SDS011;60181;53.258;6.932;2022-07-06T22:19:14;13.20;;;5.20;;
65658;SDS011;60181;53.258;6.932;2022-07-06T22:23:42;13.20;;;5.20;;
65658;SDS011;60181;53.258;6.932;2022-07-06T22:28:10;13.20;;;5.60;;
65658;SDS011;60181;53.258;6.932;2022-07-06T22:32:38;13.20;;;5.60;;
65658;SDS011;60181;53.258;6.932;2022-07-06T22:37:06;13.20;;;5.60;;
65658;SDS011;60181;53.258;6.932;2022-07-06T22:41:34;12.90;;;5.20;;
65658;SDS011;60181;53.258;6.932;2022-07-06T22:46:02;12.90;;;5.20;;
65658;SDS011;60181;53.258;6.932;2022-07-06T22:50:30;10.70;;;5.10;;
65658;SDS011;60181;53.258;6.932;2022-07-06T22:54:58;10.70;;;5.10;;
65658;SDS011;60181;53.258;6.932;2022-07-06T22:59:26;11.30;;;5.30;;
65658;SDS011;60181;53.258;6.932;2022-07-06T23:03:54;11.30;;;5.30;;
65658;SDS011;60181;53.258;6.932;2022-07-06T23:08:22;10.70;;;5.30;;
65658;SDS011;60181;53.258;6.932;2022-07-06T23:12:50;10.70;;;5.30;;
65658;SDS011;60181;53.258;6.932;2022-07-06T23:17:18;10.70;;;5.30;;
65658;SDS011;60181;53.258;6.932;2022-07-06T23:21:46;10.80;;;5.50;;
65658;SDS011;60181;53.258;6.932;2022-07-06T23:26:14;10.80;;;5.50;;
65658;SDS011;60181;53.258;6.932;2022-07-06T23:30:42;10.90;;;5.10;;
65658;SDS011;60181;53.258;6.932;2022-07-06T23:35:10;10.90;;;5.10;;
65658;SDS011;60181;53.258;6.932;2022-07-06T23:39:38;10.50;;;5.60;;
65658;SDS011;60181;53.258;6.932;2022-07-06T23:44:06;10.50;;;5.60;;
65658;SDS011;60181;53.258;6.932;2022-07-06T23:48:34;11.70;;;5.80;;
65658;SDS011;60181;53.258;6.932;2022-07-06T23:53:02;11.70;;;5.80;;
65658;SDS011;60181;53.258;6.932;2022-07-06T23:57:30;11.70;;;5.80;;
